createdAt,value
2022-12-05T00:01:51.953Z,5.76
2022-12-05T00:04:20.181Z,5.74
2022-12-05T00:06:48.302Z,5.73
2022-12-05T00:09:17.866Z,5.74
2022-12-05T00:11:47.115Z,5.75
2022-12-05T00:14:15.632Z,5.82
2022-12-05T00:16:45.079Z,5.81
2022-12-05T00:19:15.672Z,5.80
2022-12-05T00:21:44.520Z,5.97
2022-12-05T00:24:16.010Z,5.93
2022-12-05T00:26:45.841Z,5.86
2022-12-05T00:29:13.895Z,5.96
2022-12-05T00:31:42.312Z,5.92
2022-12-05T00:34:10.807Z,5.91
2022-12-05T00:36:39.125Z,5.89
2022-12-05T00:39:09.898Z,5.92
2022-12-05T00:41:38.585Z,6.01
2022-12-05T00:44:08.615Z,6.08
2022-12-05T00:46:38.040Z,6.06
2022-12-05T00:49:08.070Z,6.16
2022-12-05T00:51:39.475Z,6.21
2022-12-05T00:54:10.093Z,6.20
2022-12-05T00:56:38.661Z,6.19
2022-12-05T00:59:08.971Z,6.19
2022-12-05T01:01:38.770Z,6.23
2022-12-05T01:04:09.783Z,6.23
2022-12-05T01:06:37.900Z,6.29
2022-12-05T01:09:06.796Z,6.21
2022-12-05T01:11:40.732Z,6.11
2022-12-05T01:14:11.169Z,6.05
2022-12-05T01:16:41.445Z,6.11
2022-12-05T01:19:14.091Z,6.14
2022-12-05T01:21:42.663Z,6.17
2022-12-05T01:24:11.784Z,6.19
2022-12-05T01:26:41.231Z,6.16
2022-12-05T01:29:11.063Z,6.05
2022-12-05T01:31:40.338Z,6.03
2022-12-05T01:34:13.012Z,6.03
2022-12-05T01:36:41.437Z,6.00
2022-12-05T01:39:11.176Z,5.95
2022-12-05T01:41:42.615Z,6.08
2022-12-05T01:44:40.421Z,6.02
2022-12-05T01:47:10.222Z,5.94
2022-12-05T01:49:41.186Z,5.89
2022-12-05T01:52:14.684Z,5.87
2022-12-05T01:54:45.387Z,5.91
2022-12-05T01:57:15.369Z,5.83
2022-12-05T01:59:48.491Z,5.86
2022-12-05T02:02:18.423Z,5.83
2022-12-05T02:04:56.825Z,5.91
2022-12-05T02:07:24.988Z,5.91
2022-12-05T02:09:53.198Z,6.01
2022-12-05T02:12:22.799Z,5.99
2022-12-05T02:15:07.393Z,5.99
2022-12-05T02:17:47.588Z,6.09
2022-12-05T02:20:30.416Z,6.06
2022-12-05T02:23:28.982Z,5.98
2022-12-05T02:26:24.916Z,5.93
2022-12-05T02:29:38.618Z,5.92
2022-12-05T02:32:14.087Z,5.92
2022-12-05T02:34:49.171Z,5.89
2022-12-05T02:37:24.254Z,5.90
2022-12-05T02:39:58.088Z,5.87
2022-12-05T02:42:33.172Z,5.83
2022-12-05T02:45:04.179Z,5.78
2022-12-05T02:47:38.150Z,5.82
2022-12-05T02:50:08.750Z,5.86
2022-12-05T02:52:37.713Z,5.90
2022-12-05T02:55:08.799Z,5.89
2022-12-05T02:57:39.106Z,5.91
2022-12-05T03:00:08.619Z,5.84
2022-12-05T03:02:41.318Z,5.86
2022-12-05T03:05:20.667Z,5.84
2022-12-05T03:07:51.846Z,5.82
2022-12-05T03:10:27.640Z,5.86
2022-12-05T03:13:00.202Z,5.96
2022-12-05T03:15:33.810Z,6.03
2022-12-05T03:18:08.344Z,6.08
2022-12-05T03:20:42.874Z,6.11
2022-12-05T03:23:16.801Z,6.16
2022-12-05T03:25:52.734Z,6.17
2022-12-05T03:28:26.190Z,6.24
2022-12-05T03:30:57.903Z,6.23
2022-12-05T03:33:32.099Z,6.19
2022-12-05T03:36:04.056Z,6.23
2022-12-05T03:38:38.302Z,6.28
2022-12-05T03:41:11.026Z,6.29
2022-12-05T03:43:49.030Z,6.27
2022-12-05T03:46:24.312Z,6.28
2022-12-05T03:49:00.351Z,6.22
2022-12-05T03:51:33.712Z,6.20
2022-12-05T03:54:07.539Z,6.20
2022-12-05T03:56:40.895Z,6.20
2022-12-05T03:59:15.473Z,6.19
2022-12-05T04:01:45.100Z,6.15
2022-12-05T04:04:19.379Z,6.15
2022-12-05T04:06:50.944Z,6.08
2022-12-05T04:09:24.976Z,6.10
2022-12-05T04:11:58.978Z,6.08
2022-12-05T04:14:34.118Z,6.14
2022-12-05T04:17:04.954Z,6.17
2022-12-05T04:19:58.120Z,6.17
2022-12-05T04:22:28.047Z,6.17
2022-12-05T04:25:16.084Z,6.17
2022-12-05T04:27:52.405Z,6.14
2022-12-05T04:30:23.349Z,6.16
2022-12-05T04:33:06.646Z,6.18
2022-12-05T04:35:41.177Z,6.11
2022-12-05T04:38:14.633Z,6.09
2022-12-05T04:40:50.759Z,6.13
2022-12-05T04:43:20.894Z,6.15
2022-12-05T04:45:50.621Z,6.14
2022-12-05T04:48:20.960Z,6.12
2022-12-05T04:50:53.189Z,6.13
2022-12-05T04:53:24.064Z,6.18
2022-12-05T04:55:55.657Z,6.27
2022-12-05T04:58:26.896Z,6.28
2022-12-05T05:01:00.561Z,6.19
2022-12-05T05:03:33.827Z,6.22
2022-12-05T05:06:04.478Z,6.17
2022-12-05T05:08:32.634Z,6.13
2022-12-05T05:11:10.865Z,6.24
2022-12-05T05:13:39.012Z,6.26
2022-12-05T05:16:08.211Z,6.20
2022-12-05T05:18:36.416Z,6.11
2022-12-05T05:21:06.165Z,6.13
2022-12-05T05:23:34.229Z,6.08
2022-12-05T05:26:02.408Z,5.99
2022-12-05T05:28:30.472Z,5.94
2022-12-05T05:31:03.646Z,5.99
2022-12-05T05:33:31.865Z,6.20
2022-12-05T05:36:05.746Z,6.12
2022-12-05T05:38:38.197Z,6.17
2022-12-05T05:41:07.342Z,6.24
2022-12-05T05:43:35.712Z,6.02
2022-12-05T05:46:05.668Z,5.93
2022-12-05T05:48:33.889Z,5.98
2022-12-05T05:51:02.537Z,6.20
2022-12-05T05:53:32.518Z,6.08
2022-12-05T05:56:04.087Z,6.19
2022-12-05T05:58:32.188Z,6.15
2022-12-05T06:01:04.752Z,6.12
2022-12-05T06:03:33.037Z,6.21
2022-12-05T06:06:03.954Z,6.34
2022-12-05T06:08:34.540Z,6.34
2022-12-05T06:11:06.207Z,6.41
2022-12-05T06:13:34.327Z,6.43
2022-12-05T06:16:03.202Z,6.34
2022-12-05T06:18:31.281Z,6.34
2022-12-05T06:20:59.831Z,6.33
2022-12-05T06:23:28.807Z,6.40
2022-12-05T06:25:58.486Z,6.39
2022-12-05T06:28:27.821Z,6.30
2022-12-05T06:30:55.901Z,6.25
2022-12-05T06:33:24.057Z,6.38
2022-12-05T06:36:03.341Z,6.46
2022-12-05T06:38:31.567Z,6.64
2022-12-05T06:41:01.137Z,6.44
2022-12-05T06:43:29.255Z,6.47
2022-12-05T06:45:57.512Z,6.64
2022-12-05T06:48:25.621Z,6.67
2022-12-05T06:50:54.669Z,6.62
2022-12-05T06:53:22.806Z,6.58
2022-12-05T06:55:57.441Z,6.54
2022-12-05T06:58:27.253Z,6.55
2022-12-05T07:01:13.625Z,6.58
2022-12-05T07:03:44.090Z,6.67
2022-12-05T07:06:12.446Z,6.69
2022-12-05T07:08:41.582Z,6.70
2022-12-05T07:11:10.104Z,6.66
2022-12-05T07:13:39.590Z,6.67
2022-12-05T07:16:08.627Z,6.72
2022-12-05T07:18:37.465Z,6.73
2022-12-05T07:21:12.179Z,6.74
2022-12-05T07:23:41.665Z,6.75
2022-12-05T07:26:12.613Z,6.77
2022-12-05T07:28:42.272Z,6.87
2022-12-05T07:31:12.957Z,6.79
2022-12-05T07:33:41.691Z,6.82
2022-12-05T07:36:12.194Z,6.98
2022-12-05T07:38:41.090Z,7.13
2022-12-05T07:41:13.495Z,7.24
2022-12-05T07:43:43.716Z,7.55
2022-12-05T07:46:12.622Z,7.41
2022-12-05T07:48:41.456Z,7.52
2022-12-05T07:51:11.372Z,7.51
2022-12-05T07:53:41.647Z,7.56
2022-12-05T07:56:12.233Z,7.81
2022-12-05T07:58:40.709Z,7.94
2022-12-05T08:01:12.401Z,7.97
2022-12-05T08:03:40.735Z,7.82
2022-12-05T08:06:11.328Z,7.79
2022-12-05T08:08:39.803Z,7.78
2022-12-05T08:11:10.147Z,8.25
2022-12-05T08:13:38.788Z,8.41
2022-12-05T08:16:09.569Z,8.36
2022-12-05T08:18:39.515Z,8.41
2022-12-05T08:21:11.162Z,8.29
2022-12-05T08:23:40.668Z,8.17
2022-12-05T08:26:11.218Z,8.08
2022-12-05T08:28:40.573Z,7.96
2022-12-05T08:31:10.258Z,7.95
2022-12-05T08:33:40.707Z,8.24
2022-12-05T08:36:13.575Z,8.11
2022-12-05T08:38:42.004Z,8.05
2022-12-05T08:41:12.077Z,8.22
2022-12-05T08:43:40.758Z,8.27
2022-12-05T08:46:09.903Z,8.43
2022-12-05T08:48:39.880Z,8.48
2022-12-05T08:51:10.330Z,8.37
2022-12-05T08:53:44.118Z,8.22
2022-12-05T08:56:13.501Z,8.08
2022-12-05T08:58:42.078Z,7.94
2022-12-05T09:01:12.121Z,8.03
2022-12-05T09:03:47.557Z,8.28
2022-12-05T09:06:18.174Z,8.33
2022-12-05T09:08:47.358Z,8.08
2022-12-05T09:11:17.513Z,7.87
2022-12-05T09:13:45.718Z,7.92
2022-12-05T09:16:15.964Z,8.12
2022-12-05T09:18:46.207Z,8.01
2022-12-05T09:21:16.241Z,8.14
2022-12-05T09:23:44.794Z,8.11
2022-12-05T09:26:14.983Z,8.14
2022-12-05T09:28:44.684Z,8.26
2022-12-05T09:31:15.280Z,8.32
2022-12-05T09:33:45.029Z,8.08
2022-12-05T09:36:15.500Z,8.34
2022-12-05T09:38:43.726Z,8.68
2022-12-05T09:41:45.876Z,8.60
2022-12-05T09:44:21.836Z,8.78
2022-12-05T09:46:54.493Z,8.77
2022-12-05T09:49:25.659Z,8.79
2022-12-05T09:51:56.739Z,8.58
2022-12-05T09:54:26.179Z,8.56
2022-12-05T09:56:55.248Z,8.58
2022-12-05T09:59:23.509Z,8.58
2022-12-05T10:01:59.135Z,8.33
2022-12-05T10:05:00.157Z,8.38
2022-12-05T10:07:37.604Z,8.17
2022-12-05T10:10:22.714Z,7.97
2022-12-05T10:13:04.335Z,8.22
2022-12-05T10:15:36.859Z,8.35
2022-12-05T10:18:18.689Z,8.45
2022-12-05T10:20:52.976Z,8.46
2022-12-05T10:23:49.323Z,8.62
2022-12-05T10:26:15.851Z,8.89
2022-12-05T10:28:53.513Z,8.86
2022-12-05T10:31:27.062Z,8.93
2022-12-05T10:34:03.707Z,9.32
2022-12-05T10:36:33.907Z,9.43
2022-12-05T10:39:04.777Z,9.54
2022-12-05T10:41:36.620Z,9.45
2022-12-05T10:44:06.259Z,9.20
2022-12-05T10:46:34.360Z,9.20
2022-12-05T10:49:02.785Z,9.28
2022-12-05T10:51:37.014Z,9.43
2022-12-05T10:54:18.337Z,9.51
2022-12-05T10:56:48.415Z,9.51
2022-12-05T10:59:19.596Z,9.67
2022-12-05T11:01:51.187Z,9.67
2022-12-05T11:04:28.797Z,9.79
2022-12-05T11:07:02.149Z,9.89
2022-12-05T11:09:34.399Z,9.85
2022-12-05T11:12:07.226Z,9.83
2022-12-05T11:14:36.508Z,9.72
2022-12-05T11:17:06.917Z,9.59
2022-12-05T11:19:37.269Z,9.58
2022-12-05T11:22:08.240Z,9.57
2022-12-05T11:24:39.128Z,9.59
2022-12-05T11:27:23.336Z,9.59
2022-12-05T11:30:03.286Z,9.78
2022-12-05T11:32:33.006Z,9.77
2022-12-05T11:35:19.760Z,9.74
2022-12-05T11:37:54.375Z,9.86
2022-12-05T11:40:37.683Z,9.61
2022-12-05T11:43:26.618Z,9.52
2022-12-05T11:46:05.830Z,9.70
2022-12-05T11:48:47.643Z,9.75
2022-12-05T11:51:30.527Z,9.79
2022-12-05T11:55:03.335Z,9.76
2022-12-05T11:57:34.034Z,9.62
2022-12-05T12:00:22.421Z,9.53
2022-12-05T12:03:22.237Z,9.28
2022-12-05T12:06:03.028Z,9.40
2022-12-05T12:08:34.308Z,9.40
2022-12-05T12:11:15.150Z,9.59
2022-12-05T12:13:59.672Z,9.52
2022-12-05T12:16:38.662Z,9.35
2022-12-05T12:19:32.289Z,9.33
2022-12-05T12:22:15.262Z,9.31
2022-12-05T12:25:02.753Z,9.10
2022-12-05T12:27:45.465Z,9.04
2022-12-05T12:30:21.382Z,9.22
2022-12-05T12:33:04.755Z,9.38
2022-12-05T12:35:33.827Z,9.32
2022-12-05T12:38:23.643Z,9.27
2022-12-05T12:40:56.689Z,9.49
2022-12-05T12:43:53.645Z,9.35
2022-12-05T12:46:35.644Z,9.46
2022-12-05T12:49:24.786Z,9.53
2022-12-05T12:51:55.521Z,9.56
2022-12-05T12:57:44.199Z,9.56
2022-12-05T13:00:22.249Z,9.50
2022-12-05T13:02:57.748Z,9.65
2022-12-05T13:05:34.323Z,9.50
2022-12-05T13:08:07.976Z,9.53
2022-12-05T13:10:40.810Z,9.42
2022-12-05T13:13:12.359Z,9.37
2022-12-05T13:15:47.241Z,9.34
2022-12-05T13:18:19.866Z,9.46
2022-12-05T13:20:50.525Z,9.38
2022-12-05T13:23:22.517Z,9.40
2022-12-05T13:25:52.799Z,9.22
2022-12-05T13:28:29.588Z,9.26
2022-12-05T13:31:01.596Z,9.15
2022-12-05T13:33:37.440Z,9.05
2022-12-05T13:36:29.961Z,9.16
2022-12-05T13:39:21.126Z,9.07
2022-12-05T13:42:09.638Z,9.22
2022-12-05T13:44:42.388Z,9.25
2022-12-05T13:47:25.990Z,9.09
2022-12-05T13:50:02.730Z,9.05
2022-12-05T13:52:33.328Z,9.11
2022-12-05T13:55:13.157Z,9.20
2022-12-05T13:57:53.293Z,9.05
2022-12-05T14:00:24.457Z,9.00
2022-12-05T14:02:55.059Z,8.94
2022-12-05T14:05:53.480Z,8.82
2022-12-05T14:09:03.289Z,8.77
2022-12-05T14:11:31.567Z,8.67
2022-12-05T14:14:04.682Z,8.60
2022-12-05T14:16:46.221Z,8.57
2022-12-05T14:19:59.793Z,8.56
2022-12-05T14:23:11.201Z,8.65
2022-12-05T14:25:58.110Z,8.63
2022-12-05T14:28:44.001Z,8.64
2022-12-05T14:31:29.587Z,8.61
2022-12-05T14:34:20.888Z,8.57
2022-12-05T14:36:59.156Z,8.58
2022-12-05T14:39:39.448Z,8.57
2022-12-05T14:42:22.637Z,8.45
2022-12-05T14:44:52.095Z,8.38
2022-12-05T14:47:23.720Z,8.40
2022-12-05T14:50:04.561Z,8.54
2022-12-05T14:52:34.543Z,8.44
2022-12-05T14:55:19.631Z,8.32
2022-12-05T14:57:51.086Z,8.29
2022-12-05T15:00:22.987Z,8.27
2022-12-05T15:02:55.604Z,8.31
2022-12-05T15:05:28.057Z,8.29
2022-12-05T15:07:57.538Z,8.31
2022-12-05T15:10:33.761Z,8.32
2022-12-05T15:13:06.095Z,8.29
2022-12-05T15:15:39.104Z,8.27
2022-12-05T15:18:19.964Z,8.24
2022-12-05T15:20:55.727Z,8.09
2022-12-05T15:23:40.999Z,8.07
2022-12-05T15:26:49.290Z,7.97
2022-12-05T15:29:10.405Z,7.96
2022-12-05T15:31:45.574Z,8.01
2022-12-05T15:34:18.662Z,7.90
2022-12-05T15:36:51.937Z,7.75
2022-12-05T15:39:28.764Z,7.65
2022-12-05T15:41:58.963Z,7.55
2022-12-05T15:44:37.402Z,7.57
2022-12-05T15:47:06.362Z,7.65
2022-12-05T15:49:34.710Z,7.67
2022-12-05T15:52:15.596Z,7.67
2022-12-05T15:54:45.294Z,7.62
2022-12-05T15:57:20.906Z,7.59
2022-12-05T15:59:54.434Z,7.55
2022-12-05T16:02:28.483Z,7.47
2022-12-05T16:04:59.574Z,7.41
2022-12-05T16:07:31.885Z,7.41
2022-12-05T16:10:02.459Z,7.47
2022-12-05T16:12:39.403Z,7.55
2022-12-05T16:15:14.645Z,7.57
2022-12-05T16:17:47.269Z,7.58
2022-12-05T16:20:31.040Z,7.63
2022-12-05T16:23:02.955Z,7.68
2022-12-05T16:25:33.774Z,7.66
2022-12-05T16:28:17.625Z,7.64
2022-12-05T16:30:57.252Z,7.87
2022-12-05T16:33:25.644Z,7.75
2022-12-05T16:35:54.214Z,7.78
2022-12-05T16:38:25.938Z,7.73
2022-12-05T16:40:58.342Z,7.69
2022-12-05T16:43:45.590Z,7.64
2022-12-05T16:46:46.206Z,7.65
2022-12-05T16:49:34.485Z,7.61
2022-12-05T16:52:05.550Z,7.50
2022-12-05T16:54:33.580Z,7.39
2022-12-05T16:57:05.624Z,7.32
2022-12-05T16:59:37.486Z,7.33
2022-12-05T17:02:11.879Z,7.28
2022-12-05T17:04:40.082Z,7.25
2022-12-05T17:07:08.259Z,7.23
2022-12-05T17:09:36.748Z,7.30
2022-12-05T17:12:08.878Z,7.24
2022-12-05T17:14:38.509Z,7.23
2022-12-05T17:17:14.093Z,7.22
2022-12-05T17:19:42.331Z,7.17
2022-12-05T17:22:10.599Z,7.14
2022-12-05T17:24:38.766Z,7.14
2022-12-05T17:27:07.438Z,7.17
2022-12-05T17:29:36.079Z,7.18
2022-12-05T17:32:06.086Z,7.22
2022-12-05T17:34:34.271Z,7.26
2022-12-05T17:37:02.705Z,7.47
2022-12-05T17:39:30.890Z,7.62
2022-12-05T17:41:59.062Z,7.79
2022-12-05T17:44:27.439Z,7.68
2022-12-05T17:46:55.549Z,7.65
2022-12-05T17:49:25.293Z,7.53
2022-12-05T17:54:42.453Z,7.65
2022-12-05T17:57:10.596Z,7.47
2022-12-05T17:59:39.279Z,7.43
2022-12-05T18:02:07.898Z,7.53
2022-12-05T18:04:37.342Z,7.53
2022-12-05T18:07:05.604Z,7.51
2022-12-05T18:09:34.160Z,7.53
2022-12-05T18:12:02.378Z,7.42
2022-12-05T18:14:30.938Z,7.43
2022-12-05T18:16:59.185Z,7.64
2022-12-05T18:19:27.669Z,7.64
2022-12-05T18:21:57.157Z,7.45
2022-12-05T18:24:25.439Z,7.35
2022-12-05T18:26:55.958Z,7.42
2022-12-05T18:29:24.495Z,7.64
2022-12-05T18:31:52.753Z,7.63
2022-12-05T18:34:20.938Z,7.66
2022-12-05T18:36:49.312Z,7.63
2022-12-05T18:39:18.898Z,7.76
2022-12-05T18:41:47.239Z,7.75
2022-12-05T18:44:15.510Z,7.67
2022-12-05T18:46:43.822Z,7.50
2022-12-05T18:49:13.283Z,7.38
2022-12-05T18:51:41.628Z,7.55
2022-12-05T18:54:09.914Z,7.49
2022-12-05T18:56:40.319Z,7.52
2022-12-05T18:59:12.169Z,7.60
2022-12-05T19:01:41.890Z,7.48
2022-12-05T19:04:12.572Z,7.33
2022-12-05T19:06:43.224Z,7.25
2022-12-05T19:09:15.449Z,7.34
2022-12-05T19:11:47.941Z,7.26
2022-12-05T19:14:18.969Z,7.36
2022-12-05T19:16:51.710Z,7.64
2022-12-05T19:19:24.830Z,7.76
2022-12-05T19:21:53.669Z,7.68
2022-12-05T19:24:21.812Z,7.70
2022-12-05T19:26:51.345Z,7.69
2022-12-05T19:29:19.510Z,7.62
2022-12-05T19:31:47.663Z,7.70
2022-12-05T19:34:16.094Z,7.69
2022-12-05T19:36:46.198Z,7.68
2022-12-05T19:39:17.509Z,7.73
2022-12-05T19:41:46.802Z,7.67
2022-12-05T19:44:16.757Z,7.61
2022-12-05T19:46:45.651Z,7.46
2022-12-05T19:49:15.811Z,7.49
2022-12-05T19:51:44.652Z,7.50
2022-12-05T19:54:14.612Z,7.62
2022-12-05T19:56:43.102Z,7.58
2022-12-05T19:59:16.935Z,7.60
2022-12-05T20:01:45.283Z,7.54
2022-12-05T20:04:15.565Z,7.49
2022-12-05T20:06:45.614Z,7.41
2022-12-05T20:09:15.440Z,7.55
2022-12-05T20:11:50.935Z,7.50
2022-12-05T20:14:25.347Z,7.46
2022-12-05T20:16:54.187Z,7.33
2022-12-05T20:19:22.641Z,7.27
2022-12-05T20:21:50.765Z,7.26
2022-12-05T20:24:18.962Z,7.24
2022-12-05T20:26:47.120Z,7.22
2022-12-05T20:29:15.648Z,7.21
2022-12-05T20:31:45.215Z,7.28
2022-12-05T20:34:15.276Z,7.43
2022-12-05T20:36:44.664Z,7.53
2022-12-05T20:39:15.793Z,7.62
2022-12-05T20:41:44.427Z,7.64
2022-12-05T20:44:15.803Z,7.54
2022-12-05T20:46:45.457Z,7.50
2022-12-05T20:49:14.161Z,7.52
2022-12-05T20:51:44.281Z,7.50
2022-12-05T20:54:16.744Z,7.44
2022-12-05T20:56:46.137Z,7.37
2022-12-05T20:59:15.130Z,7.39
2022-12-05T21:01:43.682Z,7.41
2022-12-05T21:04:14.042Z,7.37
2022-12-05T21:06:43.861Z,7.36
2022-12-05T21:09:16.024Z,7.45
2022-12-05T21:11:44.554Z,7.59
2022-12-05T21:14:13.312Z,7.56
2022-12-05T21:16:42.243Z,7.52
2022-12-05T21:19:10.434Z,7.47
2022-12-05T21:21:40.103Z,7.65
2022-12-05T21:24:10.699Z,7.54
2022-12-05T21:26:39.937Z,7.51
2022-12-05T21:29:10.713Z,7.40
2022-12-05T21:31:40.839Z,7.33
2022-12-05T21:34:14.056Z,7.32
2022-12-05T21:36:44.720Z,7.30
2022-12-05T21:39:13.295Z,7.32
2022-12-05T21:41:41.702Z,7.28
2022-12-05T21:44:10.011Z,7.38
2022-12-05T21:46:38.257Z,7.35
2022-12-05T21:49:06.558Z,7.36
2022-12-05T21:51:34.718Z,7.45
2022-12-05T21:54:04.793Z,7.36
2022-12-05T21:56:33.082Z,7.33
2022-12-05T21:59:01.271Z,7.34
2022-12-05T22:01:29.629Z,7.44
2022-12-05T22:04:00.890Z,7.50
2022-12-05T22:06:30.113Z,7.39
2022-12-05T22:08:58.336Z,7.39
2022-12-05T22:11:28.214Z,7.38
2022-12-05T22:13:56.332Z,7.39
2022-12-05T22:16:30.850Z,7.39
2022-12-05T22:19:01.340Z,7.30
2022-12-05T22:21:29.871Z,7.32
2022-12-05T22:23:58.159Z,7.30
2022-12-05T22:26:28.827Z,7.35
2022-12-05T22:28:57.736Z,7.37
2022-12-05T22:31:26.009Z,7.38
2022-12-05T22:33:54.242Z,7.44
2022-12-05T22:36:24.216Z,7.40
2022-12-05T22:38:52.432Z,7.36
2022-12-05T22:41:23.272Z,7.35
2022-12-05T22:43:56.674Z,7.41
2022-12-05T22:46:25.481Z,7.42
2022-12-05T22:48:54.524Z,7.40
2022-12-05T22:51:23.811Z,7.33
2022-12-05T22:53:52.609Z,7.29
2022-12-05T22:56:21.767Z,7.24
2022-12-05T22:58:50.231Z,7.28
2022-12-05T23:01:21.869Z,7.37
2022-12-05T23:03:51.424Z,7.36
2022-12-05T23:06:19.836Z,7.38
2022-12-05T23:08:49.409Z,7.34
2022-12-05T23:11:18.780Z,7.25
2022-12-05T23:13:47.365Z,7.14
2022-12-05T23:16:20.766Z,7.11
2022-12-05T23:18:51.080Z,7.14
2022-12-05T23:21:20.829Z,7.11
2022-12-05T23:23:50.092Z,7.05
2022-12-05T23:26:19.528Z,7.05
2022-12-05T23:28:48.054Z,7.02
2022-12-05T23:31:17.063Z,7.02
2022-12-05T23:33:47.580Z,7.04
2022-12-05T23:36:19.139Z,7.08
2022-12-05T23:38:47.516Z,7.12
2022-12-05T23:41:17.948Z,7.23
2022-12-05T23:43:46.815Z,7.23
2022-12-05T23:46:16.128Z,7.20
2022-12-05T23:48:44.430Z,7.18
2022-12-05T23:51:14.476Z,7.17
2022-12-05T23:53:45.126Z,7.15
2022-12-05T23:56:14.904Z,7.14
2022-12-05T23:58:44.072Z,7.27
